createdAt,value
2022-11-05T00:09:10.455Z,28.60
2022-11-05T00:19:14.366Z,29.40
2022-11-05T00:29:15.994Z,30.00
2022-11-05T00:39:17.709Z,30.10
2022-11-05T00:49:31.561Z,32.50
2022-11-05T00:59:33.184Z,30.70
2022-11-05T01:09:34.846Z,31.90
2022-11-05T01:19:36.523Z,27.10
2022-11-05T01:29:38.178Z,27.60
2022-11-05T01:39:39.859Z,29.10
2022-11-05T01:49:41.659Z,31.00
2022-11-05T01:59:54.162Z,29.80
2022-11-05T02:10:08.680Z,26.80
2022-11-05T02:20:23.079Z,29.60
2022-11-05T02:30:53.649Z,32.30
2022-11-05T02:41:08.476Z,29.50
2022-11-05T02:51:23.656Z,31.60
2022-11-05T03:01:25.371Z,28.50
2022-11-05T03:11:31.061Z,30.60
2022-11-05T03:21:50.398Z,29.50
2022-11-05T03:31:56.287Z,29.70
2022-11-05T03:41:59.624Z,33.30
2022-11-05T03:52:07.722Z,30.80
2022-11-05T04:02:11.611Z,29.70
2022-11-05T04:12:32.233Z,32.50
2022-11-05T04:22:53.762Z,33.80
2022-11-05T04:32:58.314Z,37.90
2022-11-05T04:43:00.646Z,33.80
2022-11-05T04:53:02.316Z,36.20
2022-11-05T05:03:03.968Z,33.20
2022-11-05T05:13:05.679Z,32.30
2022-11-05T05:23:07.368Z,34.60
2022-11-05T05:33:09.268Z,29.20
2022-11-05T05:43:11.406Z,38.50
2022-11-05T05:53:13.572Z,34.70
2022-11-05T06:03:15.552Z,41.50
2022-11-05T06:13:17.437Z,38.10
2022-11-05T06:23:19.072Z,34.50
2022-11-05T06:33:20.785Z,39.50
2022-11-05T06:43:22.783Z,37.10
2022-11-05T06:53:24.451Z,39.30
2022-11-05T07:03:26.344Z,38.80
2022-11-05T07:13:28.284Z,39.30
2022-11-05T07:23:29.983Z,38.00
2022-11-05T07:33:36.324Z,36.40
2022-11-05T07:43:38.554Z,37.80
2022-11-05T07:53:45.040Z,39.60
2022-11-05T08:03:47.364Z,39.80
2022-11-05T08:13:49.270Z,39.40
2022-11-05T08:23:50.976Z,41.80
2022-11-05T08:33:55.172Z,38.40
2022-11-05T08:44:00.137Z,39.10
2022-11-05T08:54:01.800Z,44.90
2022-11-05T09:04:03.721Z,50.50
2022-11-05T09:14:05.479Z,45.20
2022-11-05T09:24:07.486Z,35.00
2022-11-05T09:34:09.198Z,45.60
2022-11-05T09:44:23.560Z,54.80
2022-11-05T09:54:30.946Z,45.40
2022-11-05T10:04:33.721Z,50.60
2022-11-05T10:14:40.462Z,41.90
2022-11-05T10:24:46.593Z,44.90
2022-11-05T10:34:49.826Z,43.80
2022-11-05T10:45:23.834Z,45.00
2022-11-05T10:55:37.058Z,57.90
2022-11-05T11:05:40.094Z,50.70
2022-11-05T11:15:41.774Z,46.90
2022-11-05T11:25:58.080Z,53.20
2022-11-05T11:36:00.483Z,50.90
2022-11-05T11:46:08.788Z,51.90
2022-11-05T11:56:16.910Z,50.60
2022-11-05T12:06:45.619Z,50.10
2022-11-05T12:17:17.636Z,47.60
2022-11-05T12:27:25.541Z,54.00
2022-11-05T12:37:34.608Z,52.70
2022-11-05T12:47:49.135Z,57.00
2022-11-05T12:58:00.638Z,57.70
2022-11-05T13:08:10.081Z,63.30
2022-11-05T13:18:18.603Z,75.80
2022-11-05T13:28:23.290Z,58.50
2022-11-05T13:38:44.819Z,63.20
2022-11-05T13:49:02.668Z,60.00
2022-11-05T13:59:13.818Z,55.00
2022-11-05T14:09:23.417Z,60.40
2022-11-05T14:19:32.014Z,53.40
2022-11-05T14:29:38.088Z,54.10
2022-11-05T14:39:40.422Z,52.90
2022-11-05T14:49:53.478Z,57.60
2022-11-05T14:59:57.888Z,62.00
2022-11-05T15:10:10.671Z,63.40
2022-11-05T15:20:20.049Z,60.40
2022-11-05T15:30:23.557Z,60.70
2022-11-05T15:40:31.416Z,60.10
2022-11-05T15:50:33.203Z,60.30
2022-11-05T16:00:36.243Z,55.50
2022-11-05T16:10:38.476Z,58.00
2022-11-05T16:20:40.256Z,65.30
2022-11-05T16:30:58.489Z,62.20
2022-11-05T16:41:00.149Z,62.30
2022-11-05T16:51:01.865Z,58.50
2022-11-05T17:01:07.555Z,48.80
2022-11-05T17:11:20.161Z,58.20
2022-11-05T17:21:31.058Z,63.60
2022-11-05T17:31:32.833Z,58.40
2022-11-05T17:41:34.504Z,49.60
2022-11-05T17:51:36.308Z,57.10
2022-11-05T18:01:42.686Z,50.60
2022-11-05T18:11:45.474Z,48.10
2022-11-05T18:21:47.146Z,40.10
2022-11-05T18:31:48.887Z,26.60
2022-11-05T18:41:50.532Z,20.80
2022-11-05T18:51:52.523Z,18.80
2022-11-05T19:02:07.895Z,15.30
2022-11-05T19:12:09.701Z,16.90
2022-11-05T19:22:11.465Z,14.70
2022-11-05T19:32:13.147Z,19.50
2022-11-05T19:42:14.794Z,31.70
2022-11-05T19:52:16.471Z,44.70
2022-11-05T20:02:18.238Z,22.50
2022-11-05T20:12:19.971Z,21.80
2022-11-05T20:22:23.278Z,24.60
2022-11-05T20:32:26.864Z,29.60
2022-11-05T20:42:28.637Z,27.10
2022-11-05T20:52:30.419Z,23.40
2022-11-05T21:02:34.598Z,24.90
2022-11-05T21:12:36.461Z,27.20
2022-11-05T21:22:38.522Z,29.90
2022-11-05T21:32:40.181Z,26.70
2022-11-05T21:42:42.193Z,24.30
2022-11-05T21:53:02.650Z,18.00
2022-11-05T22:03:04.352Z,28.90
2022-11-05T22:13:14.966Z,30.10
2022-11-05T22:23:29.142Z,29.10
2022-11-05T22:44:57.623Z,25.00
2022-11-05T22:55:02.011Z,25.50
2022-11-05T23:05:22.240Z,24.60
2022-11-05T23:15:45.438Z,23.60
2022-11-05T23:26:25.164Z,18.70
2022-11-05T23:36:45.555Z,23.00
2022-11-05T23:47:05.829Z,26.70
2022-11-05T23:57:07.451Z,23.30
